sensor_id;sensor_type;location;lat;lon;timestamp;P1;durP1;ratioP1;P2;durP2;ratioP2
26600;SDS011;14241;49.260;10.496;2024-03-25T00:00:38;7.40;;;3.80;;
26600;SDS011;14241;49.260;10.496;2024-03-25T00:03:03;6.15;;;4.25;;
26600;SDS011;14241;49.260;10.496;2024-03-25T00:05:29;5.07;;;3.55;;
26600;SDS011;14241;49.260;10.496;2024-03-25T00:07:54;5.85;;;4.05;;
26600;SDS011;14241;49.260;10.496;2024-03-25T00:10:20;6.90;;;4.65;;
26600;SDS011;14241;49.260;10.496;2024-03-25T00:12:46;5.20;;;3.88;;
26600;SDS011;14241;49.260;10.496;2024-03-25T00:15:11;5.72;;;4.00;;
26600;SDS011;14241;49.260;10.496;2024-03-25T00:17:36;7.70;;;4.22;;
26600;SDS011;14241;49.260;10.496;2024-03-25T00:20:01;6.07;;;3.50;;
26600;SDS011;14241;49.260;10.496;2024-03-25T00:22:30;8.38;;;3.90;;
26600;SDS011;14241;49.260;10.496;2024-03-25T00:24:56;4.45;;;3.72;;
26600;SDS011;14241;49.260;10.496;2024-03-25T00:27:21;6.28;;;3.92;;
26600;SDS011;14241;49.260;10.496;2024-03-25T00:29:46;8.40;;;4.47;;
26600;SDS011;14241;49.260;10.496;2024-03-25T00:32:12;6.80;;;4.28;;
26600;SDS011;14241;49.260;10.496;2024-03-25T00:34:37;5.72;;;4.20;;
26600;SDS011;14241;49.260;10.496;2024-03-25T00:37:02;7.30;;;4.10;;
26600;SDS011;14241;49.260;10.496;2024-03-25T00:39:29;5.40;;;3.75;;
26600;SDS011;14241;49.260;10.496;2024-03-25T00:41:57;7.18;;;4.00;;
26600;SDS011;14241;49.260;10.496;2024-03-25T00:44:22;9.38;;;4.18;;
26600;SDS011;14241;49.260;10.496;2024-03-25T00:46:47;6.22;;;4.30;;
26600;SDS011;14241;49.260;10.496;2024-03-25T00:49:13;5.50;;;3.28;;
26600;SDS011;14241;49.260;10.496;2024-03-25T00:51:39;5.38;;;3.97;;
26600;SDS011;14241;49.260;10.496;2024-03-25T00:54:04;5.85;;;4.07;;
26600;SDS011;14241;49.260;10.496;2024-03-25T00:56:30;5.32;;;4.18;;
26600;SDS011;14241;49.260;10.496;2024-03-25T00:58:55;6.85;;;3.95;;
26600;SDS011;14241;49.260;10.496;2024-03-25T01:01:22;7.72;;;4.40;;
26600;SDS011;14241;49.260;10.496;2024-03-25T01:03:47;7.25;;;4.35;;
26600;SDS011;14241;49.260;10.496;2024-03-25T01:06:13;6.22;;;4.13;;
26600;SDS011;14241;49.260;10.496;2024-03-25T01:08:38;9.38;;;4.43;;
26600;SDS011;14241;49.260;10.496;2024-03-25T01:11:03;7.68;;;4.60;;
26600;SDS011;14241;49.260;10.496;2024-03-25T01:13:29;5.50;;;4.30;;
26600;SDS011;14241;49.260;10.496;2024-03-25T01:15:55;7.22;;;4.40;;
26600;SDS011;14241;49.260;10.496;2024-03-25T01:18:20;7.38;;;4.93;;
26600;SDS011;14241;49.260;10.496;2024-03-25T01:20:45;6.78;;;4.65;;
26600;SDS011;14241;49.260;10.496;2024-03-25T01:23:10;7.97;;;4.60;;
26600;SDS011;14241;49.260;10.496;2024-03-25T01:25:36;8.10;;;4.28;;
26600;SDS011;14241;49.260;10.496;2024-03-25T01:28:01;10.43;;;4.93;;
26600;SDS011;14241;49.260;10.496;2024-03-25T01:30:27;9.13;;;4.15;;
26600;SDS011;14241;49.260;10.496;2024-03-25T01:32:53;8.35;;;5.13;;
26600;SDS011;14241;49.260;10.496;2024-03-25T01:35:19;7.90;;;4.80;;
26600;SDS011;14241;49.260;10.496;2024-03-25T01:37:44;6.80;;;4.43;;
26600;SDS011;14241;49.260;10.496;2024-03-25T01:40:10;5.50;;;4.18;;
26600;SDS011;14241;49.260;10.496;2024-03-25T01:42:36;8.15;;;4.55;;
26600;SDS011;14241;49.260;10.496;2024-03-25T01:45:01;6.97;;;4.35;;
26600;SDS011;14241;49.260;10.496;2024-03-25T01:47:28;7.18;;;4.32;;
26600;SDS011;14241;49.260;10.496;2024-03-25T01:49:54;5.70;;;4.80;;
26600;SDS011;14241;49.260;10.496;2024-03-25T01:52:21;6.95;;;4.43;;
26600;SDS011;14241;49.260;10.496;2024-03-25T01:54:47;8.68;;;4.93;;
26600;SDS011;14241;49.260;10.496;2024-03-25T01:57:14;7.47;;;4.63;;
26600;SDS011;14241;49.260;10.496;2024-03-25T01:59:40;8.07;;;4.80;;
26600;SDS011;14241;49.260;10.496;2024-03-25T02:02:05;6.35;;;4.53;;
26600;SDS011;14241;49.260;10.496;2024-03-25T02:04:30;6.10;;;4.82;;
26600;SDS011;14241;49.260;10.496;2024-03-25T02:06:56;7.00;;;4.45;;
26600;SDS011;14241;49.260;10.496;2024-03-25T02:09:23;6.25;;;4.53;;
26600;SDS011;14241;49.260;10.496;2024-03-25T02:11:48;8.90;;;5.28;;
26600;SDS011;14241;49.260;10.496;2024-03-25T02:14:14;8.43;;;5.03;;
26600;SDS011;14241;49.260;10.496;2024-03-25T02:16:39;6.90;;;5.07;;
26600;SDS011;14241;49.260;10.496;2024-03-25T02:19:04;7.53;;;4.82;;
26600;SDS011;14241;49.260;10.496;2024-03-25T02:21:30;7.97;;;4.50;;
26600;SDS011;14241;49.260;10.496;2024-03-25T02:23:56;5.95;;;5.28;;
26600;SDS011;14241;49.260;10.496;2024-03-25T02:26:22;7.88;;;5.30;;
26600;SDS011;14241;49.260;10.496;2024-03-25T02:28:48;8.02;;;4.70;;
26600;SDS011;14241;49.260;10.496;2024-03-25T02:31:13;7.85;;;4.90;;
26600;SDS011;14241;49.260;10.496;2024-03-25T02:33:39;7.95;;;5.30;;
26600;SDS011;14241;49.260;10.496;2024-03-25T02:36:04;6.57;;;5.00;;
26600;SDS011;14241;49.260;10.496;2024-03-25T02:38:29;9.77;;;5.20;;
26600;SDS011;14241;49.260;10.496;2024-03-25T02:40:55;7.18;;;5.32;;
26600;SDS011;14241;49.260;10.496;2024-03-25T02:43:20;8.07;;;5.68;;
26600;SDS011;14241;49.260;10.496;2024-03-25T02:45:46;7.05;;;5.38;;
26600;SDS011;14241;49.260;10.496;2024-03-25T02:48:11;9.27;;;5.60;;
26600;SDS011;14241;49.260;10.496;2024-03-25T02:50:37;10.43;;;5.70;;
26600;SDS011;14241;49.260;10.496;2024-03-25T02:53:02;8.30;;;5.55;;
26600;SDS011;14241;49.260;10.496;2024-03-25T02:55:27;9.40;;;5.70;;
26600;SDS011;14241;49.260;10.496;2024-03-25T02:57:52;7.30;;;5.13;;
26600;SDS011;14241;49.260;10.496;2024-03-25T03:00:18;8.95;;;5.05;;
26600;SDS011;14241;49.260;10.496;2024-03-25T03:02:43;7.90;;;6.07;;
26600;SDS011;14241;49.260;10.496;2024-03-25T03:05:08;8.88;;;6.32;;
26600;SDS011;14241;49.260;10.496;2024-03-25T03:07:34;11.15;;;6.00;;
26600;SDS011;14241;49.260;10.496;2024-03-25T03:09:59;10.65;;;6.28;;
26600;SDS011;14241;49.260;10.496;2024-03-25T03:12:25;6.47;;;5.38;;
26600;SDS011;14241;49.260;10.496;2024-03-25T03:14:50;8.50;;;6.18;;
26600;SDS011;14241;49.260;10.496;2024-03-25T03:17:15;9.82;;;5.70;;
26600;SDS011;14241;49.260;10.496;2024-03-25T03:19:40;8.85;;;6.18;;
26600;SDS011;14241;49.260;10.496;2024-03-25T03:22:06;9.48;;;5.93;;
26600;SDS011;14241;49.260;10.496;2024-03-25T03:24:31;7.82;;;6.05;;
26600;SDS011;14241;49.260;10.496;2024-03-25T03:26:56;9.63;;;6.07;;
26600;SDS011;14241;49.260;10.496;2024-03-25T03:29:21;7.68;;;5.32;;
26600;SDS011;14241;49.260;10.496;2024-03-25T03:31:47;9.80;;;6.03;;
26600;SDS011;14241;49.260;10.496;2024-03-25T03:34:12;8.48;;;6.13;;
26600;SDS011;14241;49.260;10.496;2024-03-25T03:36:37;14.80;;;6.32;;
26600;SDS011;14241;49.260;10.496;2024-03-25T03:39:03;9.48;;;6.05;;
26600;SDS011;14241;49.260;10.496;2024-03-25T03:41:29;10.02;;;6.32;;
26600;SDS011;14241;49.260;10.496;2024-03-25T03:43:54;7.93;;;5.50;;
26600;SDS011;14241;49.260;10.496;2024-03-25T03:46:19;8.02;;;6.05;;
26600;SDS011;14241;49.260;10.496;2024-03-25T03:48:45;8.85;;;6.38;;
26600;SDS011;14241;49.260;10.496;2024-03-25T03:51:10;9.88;;;5.97;;
26600;SDS011;14241;49.260;10.496;2024-03-25T03:53:36;8.43;;;5.22;;
26600;SDS011;14241;49.260;10.496;2024-03-25T03:56:04;8.60;;;5.88;;
26600;SDS011;14241;49.260;10.496;2024-03-25T03:58:30;7.78;;;5.68;;
26600;SDS011;14241;49.260;10.496;2024-03-25T04:00:56;7.30;;;5.85;;
26600;SDS011;14241;49.260;10.496;2024-03-25T04:03:21;12.30;;;5.72;;
26600;SDS011;14241;49.260;10.496;2024-03-25T04:05:47;7.90;;;5.80;;
26600;SDS011;14241;49.260;10.496;2024-03-25T04:08:12;8.98;;;5.88;;
26600;SDS011;14241;49.260;10.496;2024-03-25T04:10:38;10.75;;;6.15;;
26600;SDS011;14241;49.260;10.496;2024-03-25T04:13:04;10.73;;;6.80;;
26600;SDS011;14241;49.260;10.496;2024-03-25T04:15:29;10.65;;;5.97;;
26600;SDS011;14241;49.260;10.496;2024-03-25T04:17:57;10.18;;;6.57;;
26600;SDS011;14241;49.260;10.496;2024-03-25T04:20:23;8.80;;;6.07;;
26600;SDS011;14241;49.260;10.496;2024-03-25T04:22:49;9.40;;;5.85;;
26600;SDS011;14241;49.260;10.496;2024-03-25T04:25:14;8.70;;;6.03;;
26600;SDS011;14241;49.260;10.496;2024-03-25T04:27:39;8.52;;;6.00;;
26600;SDS011;14241;49.260;10.496;2024-03-25T04:30:05;9.57;;;6.03;;
26600;SDS011;14241;49.260;10.496;2024-03-25T04:32:32;9.07;;;5.38;;
26600;SDS011;14241;49.260;10.496;2024-03-25T04:34:57;9.35;;;6.25;;
26600;SDS011;14241;49.260;10.496;2024-03-25T04:37:22;9.93;;;5.97;;
26600;SDS011;14241;49.260;10.496;2024-03-25T04:39:48;10.18;;;6.07;;
26600;SDS011;14241;49.260;10.496;2024-03-25T04:42:13;9.50;;;6.10;;
26600;SDS011;14241;49.260;10.496;2024-03-25T04:44:38;9.02;;;5.97;;
26600;SDS011;14241;49.260;10.496;2024-03-25T04:47:04;10.80;;;6.75;;
26600;SDS011;14241;49.260;10.496;2024-03-25T04:49:30;7.60;;;5.75;;
26600;SDS011;14241;49.260;10.496;2024-03-25T04:51:55;10.07;;;6.15;;
26600;SDS011;14241;49.260;10.496;2024-03-25T04:54:21;9.50;;;6.35;;
26600;SDS011;14241;49.260;10.496;2024-03-25T04:56:46;9.07;;;6.25;;
26600;SDS011;14241;49.260;10.496;2024-03-25T04:59:12;7.47;;;6.47;;
26600;SDS011;14241;49.260;10.496;2024-03-25T05:01:38;11.30;;;6.65;;
26600;SDS011;14241;49.260;10.496;2024-03-25T05:04:03;8.48;;;6.38;;
26600;SDS011;14241;49.260;10.496;2024-03-25T05:06:28;12.52;;;7.10;;
26600;SDS011;14241;49.260;10.496;2024-03-25T05:08:53;12.20;;;6.85;;
26600;SDS011;14241;49.260;10.496;2024-03-25T05:11:19;11.93;;;6.70;;
26600;SDS011;14241;49.260;10.496;2024-03-25T05:13:44;8.93;;;6.53;;
26600;SDS011;14241;49.260;10.496;2024-03-25T05:16:10;11.65;;;6.75;;
26600;SDS011;14241;49.260;10.496;2024-03-25T05:18:36;9.20;;;6.90;;
26600;SDS011;14241;49.260;10.496;2024-03-25T05:21:01;8.48;;;7.35;;
26600;SDS011;14241;49.260;10.496;2024-03-25T05:23:26;7.53;;;6.60;;
26600;SDS011;14241;49.260;10.496;2024-03-25T05:25:51;11.77;;;7.38;;
26600;SDS011;14241;49.260;10.496;2024-03-25T05:28:17;8.82;;;6.88;;
26600;SDS011;14241;49.260;10.496;2024-03-25T05:30:42;7.55;;;6.43;;
26600;SDS011;14241;49.260;10.496;2024-03-25T05:33:07;10.82;;;7.05;;
26600;SDS011;14241;49.260;10.496;2024-03-25T05:35:33;13.15;;;7.30;;
26600;SDS011;14241;49.260;10.496;2024-03-25T05:38:01;10.68;;;6.95;;
26600;SDS011;14241;49.260;10.496;2024-03-25T05:40:28;9.50;;;7.22;;
26600;SDS011;14241;49.260;10.496;2024-03-25T05:42:53;9.18;;;6.93;;
26600;SDS011;14241;49.260;10.496;2024-03-25T05:45:19;7.80;;;6.65;;
26600;SDS011;14241;49.260;10.496;2024-03-25T05:47:44;8.73;;;6.82;;
26600;SDS011;14241;49.260;10.496;2024-03-25T05:50:09;10.05;;;6.97;;
26600;SDS011;14241;49.260;10.496;2024-03-25T05:52:35;12.23;;;7.10;;
26600;SDS011;14241;49.260;10.496;2024-03-25T05:55:00;9.48;;;6.88;;
26600;SDS011;14241;49.260;10.496;2024-03-25T05:57:26;9.40;;;6.82;;
26600;SDS011;14241;49.260;10.496;2024-03-25T05:59:51;11.52;;;6.47;;
26600;SDS011;14241;49.260;10.496;2024-03-25T06:02:16;9.15;;;6.90;;
26600;SDS011;14241;49.260;10.496;2024-03-25T06:04:42;10.25;;;7.03;;
26600;SDS011;14241;49.260;10.496;2024-03-25T06:07:07;11.15;;;6.85;;
26600;SDS011;14241;49.260;10.496;2024-03-25T06:09:33;9.65;;;6.22;;
26600;SDS011;14241;49.260;10.496;2024-03-25T06:11:58;11.70;;;9.05;;
26600;SDS011;14241;49.260;10.496;2024-03-25T06:14:23;12.45;;;6.60;;
26600;SDS011;14241;49.260;10.496;2024-03-25T06:16:49;11.65;;;7.15;;
26600;SDS011;14241;49.260;10.496;2024-03-25T06:19:14;11.52;;;6.95;;
26600;SDS011;14241;49.260;10.496;2024-03-25T06:21:39;13.70;;;7.55;;
26600;SDS011;14241;49.260;10.496;2024-03-25T06:24:05;8.07;;;5.80;;
26600;SDS011;14241;49.260;10.496;2024-03-25T06:26:30;10.18;;;6.18;;
26600;SDS011;14241;49.260;10.496;2024-03-25T06:28:55;10.07;;;6.63;;
26600;SDS011;14241;49.260;10.496;2024-03-25T06:31:21;9.68;;;5.88;;
26600;SDS011;14241;49.260;10.496;2024-03-25T06:34:06;9.25;;;6.40;;
26600;SDS011;14241;49.260;10.496;2024-03-25T06:36:46;12.40;;;6.45;;
26600;SDS011;14241;49.260;10.496;2024-03-25T06:39:13;10.88;;;6.90;;
26600;SDS011;14241;49.260;10.496;2024-03-25T06:41:38;13.50;;;7.18;;
26600;SDS011;14241;49.260;10.496;2024-03-25T06:44:04;9.32;;;6.60;;
26600;SDS011;14241;49.260;10.496;2024-03-25T06:46:30;11.45;;;6.60;;
26600;SDS011;14241;49.260;10.496;2024-03-25T06:48:55;10.77;;;6.80;;
26600;SDS011;14241;49.260;10.496;2024-03-25T06:51:20;15.95;;;10.50;;
26600;SDS011;14241;49.260;10.496;2024-03-25T06:53:46;11.27;;;7.00;;
26600;SDS011;14241;49.260;10.496;2024-03-25T06:56:11;12.20;;;6.80;;
26600;SDS011;14241;49.260;10.496;2024-03-25T06:58:36;12.20;;;6.55;;
26600;SDS011;14241;49.260;10.496;2024-03-25T07:01:05;12.80;;;6.40;;
26600;SDS011;14241;49.260;10.496;2024-03-25T07:03:32;10.23;;;5.93;;
26600;SDS011;14241;49.260;10.496;2024-03-25T07:05:57;9.95;;;5.82;;
26600;SDS011;14241;49.260;10.496;2024-03-25T07:08:24;7.25;;;5.80;;
26600;SDS011;14241;49.260;10.496;2024-03-25T07:10:49;10.25;;;5.80;;
26600;SDS011;14241;49.260;10.496;2024-03-25T07:13:15;8.82;;;5.88;;
26600;SDS011;14241;49.260;10.496;2024-03-25T07:15:40;9.48;;;5.80;;
26600;SDS011;14241;49.260;10.496;2024-03-25T07:18:05;10.15;;;5.97;;
26600;SDS011;14241;49.260;10.496;2024-03-25T07:20:31;8.10;;;4.53;;
26600;SDS011;14241;49.260;10.496;2024-03-25T07:22:56;10.25;;;4.97;;
26600;SDS011;14241;49.260;10.496;2024-03-25T07:25:25;9.48;;;4.93;;
26600;SDS011;14241;49.260;10.496;2024-03-25T07:27:50;6.88;;;4.78;;
26600;SDS011;14241;49.260;10.496;2024-03-25T07:30:16;10.05;;;5.28;;
26600;SDS011;14241;49.260;10.496;2024-03-25T07:32:41;8.00;;;5.03;;
26600;SDS011;14241;49.260;10.496;2024-03-25T07:35:07;9.65;;;5.30;;
26600;SDS011;14241;49.260;10.496;2024-03-25T07:37:33;8.25;;;4.35;;
26600;SDS011;14241;49.260;10.496;2024-03-25T07:39:59;8.68;;;5.40;;
26600;SDS011;14241;49.260;10.496;2024-03-25T07:42:24;7.53;;;4.75;;
26600;SDS011;14241;49.260;10.496;2024-03-25T07:44:50;10.88;;;6.18;;
26600;SDS011;14241;49.260;10.496;2024-03-25T07:47:15;7.53;;;5.40;;
26600;SDS011;14241;49.260;10.496;2024-03-25T07:49:40;10.63;;;5.03;;
26600;SDS011;14241;49.260;10.496;2024-03-25T07:52:06;7.13;;;5.53;;
26600;SDS011;14241;49.260;10.496;2024-03-25T07:54:32;10.88;;;4.90;;
26600;SDS011;14241;49.260;10.496;2024-03-25T07:56:57;7.22;;;4.72;;
26600;SDS011;14241;49.260;10.496;2024-03-25T07:59:22;6.25;;;4.15;;
26600;SDS011;14241;49.260;10.496;2024-03-25T08:01:47;6.65;;;4.88;;
26600;SDS011;14241;49.260;10.496;2024-03-25T08:04:13;7.47;;;4.53;;
26600;SDS011;14241;49.260;10.496;2024-03-25T08:06:38;11.60;;;5.95;;
26600;SDS011;14241;49.260;10.496;2024-03-25T08:09:03;10.07;;;5.25;;
26600;SDS011;14241;49.260;10.496;2024-03-25T08:11:32;9.35;;;5.18;;
26600;SDS011;14241;49.260;10.496;2024-03-25T08:13:57;8.95;;;4.82;;
26600;SDS011;14241;49.260;10.496;2024-03-25T08:16:22;9.80;;;5.30;;
26600;SDS011;14241;49.260;10.496;2024-03-25T08:18:48;7.88;;;5.05;;
26600;SDS011;14241;49.260;10.496;2024-03-25T08:21:13;6.82;;;4.70;;
26600;SDS011;14241;49.260;10.496;2024-03-25T08:23:38;11.02;;;4.60;;
26600;SDS011;14241;49.260;10.496;2024-03-25T08:26:05;8.75;;;4.28;;
26600;SDS011;14241;49.260;10.496;2024-03-25T08:28:30;8.35;;;4.50;;
26600;SDS011;14241;49.260;10.496;2024-03-25T08:30:55;7.88;;;4.22;;
26600;SDS011;14241;49.260;10.496;2024-03-25T08:33:20;6.72;;;4.35;;
26600;SDS011;14241;49.260;10.496;2024-03-25T08:35:46;7.95;;;4.07;;
26600;SDS011;14241;49.260;10.496;2024-03-25T08:38:11;6.57;;;3.95;;
26600;SDS011;14241;49.260;10.496;2024-03-25T08:40:36;4.95;;;3.28;;
26600;SDS011;14241;49.260;10.496;2024-03-25T08:43:01;7.65;;;3.67;;
26600;SDS011;14241;49.260;10.496;2024-03-25T08:45:27;6.85;;;3.28;;
26600;SDS011;14241;49.260;10.496;2024-03-25T08:47:52;7.72;;;3.30;;
26600;SDS011;14241;49.260;10.496;2024-03-25T08:50:17;7.10;;;3.53;;
26600;SDS011;14241;49.260;10.496;2024-03-25T08:52:43;8.93;;;3.40;;
26600;SDS011;14241;49.260;10.496;2024-03-25T08:55:08;4.70;;;3.40;;
26600;SDS011;14241;49.260;10.496;2024-03-25T08:57:34;5.97;;;3.70;;
26600;SDS011;14241;49.260;10.496;2024-03-25T08:59:59;6.18;;;3.67;;
26600;SDS011;14241;49.260;10.496;2024-03-25T09:02:24;9.88;;;4.82;;
26600;SDS011;14241;49.260;10.496;2024-03-25T09:04:50;8.45;;;3.95;;
26600;SDS011;14241;49.260;10.496;2024-03-25T09:07:15;9.70;;;4.22;;
26600;SDS011;14241;49.260;10.496;2024-03-25T09:09:40;7.82;;;4.32;;
26600;SDS011;14241;49.260;10.496;2024-03-25T09:12:24;7.00;;;3.70;;
26600;SDS011;14241;49.260;10.496;2024-03-25T09:14:49;6.93;;;4.35;;
26600;SDS011;14241;49.260;10.496;2024-03-25T09:17:14;7.18;;;3.42;;
26600;SDS011;14241;49.260;10.496;2024-03-25T09:19:41;5.32;;;3.40;;
26600;SDS011;14241;49.260;10.496;2024-03-25T09:22:06;5.93;;;3.28;;
26600;SDS011;14241;49.260;10.496;2024-03-25T09:24:31;10.18;;;3.13;;
26600;SDS011;14241;49.260;10.496;2024-03-25T09:26:57;4.72;;;3.03;;
26600;SDS011;14241;49.260;10.496;2024-03-25T09:29:22;4.38;;;2.88;;
26600;SDS011;14241;49.260;10.496;2024-03-25T09:31:47;4.30;;;2.83;;
26600;SDS011;14241;49.260;10.496;2024-03-25T09:34:12;7.10;;;2.85;;
26600;SDS011;14241;49.260;10.496;2024-03-25T09:36:38;4.38;;;2.80;;
26600;SDS011;14241;49.260;10.496;2024-03-25T09:39:03;5.63;;;3.00;;
26600;SDS011;14241;49.260;10.496;2024-03-25T09:41:30;6.47;;;2.95;;
26600;SDS011;14241;49.260;10.496;2024-03-25T09:43:59;3.42;;;2.30;;
26600;SDS011;14241;49.260;10.496;2024-03-25T09:46:25;5.65;;;2.65;;
26600;SDS011;14241;49.260;10.496;2024-03-25T09:48:52;6.13;;;2.80;;
26600;SDS011;14241;49.260;10.496;2024-03-25T09:51:17;5.22;;;2.72;;
26600;SDS011;14241;49.260;10.496;2024-03-25T09:53:43;4.72;;;2.58;;
26600;SDS011;14241;49.260;10.496;2024-03-25T09:56:08;4.45;;;2.50;;
26600;SDS011;14241;49.260;10.496;2024-03-25T09:58:34;5.55;;;2.88;;
26600;SDS011;14241;49.260;10.496;2024-03-25T10:01:00;6.05;;;2.70;;
26600;SDS011;14241;49.260;10.496;2024-03-25T10:03:26;6.72;;;2.85;;
26600;SDS011;14241;49.260;10.496;2024-03-25T10:05:51;4.32;;;2.78;;
26600;SDS011;14241;49.260;10.496;2024-03-25T10:08:20;4.75;;;3.17;;
26600;SDS011;14241;49.260;10.496;2024-03-25T10:10:45;6.13;;;3.40;;
26600;SDS011;14241;49.260;10.496;2024-03-25T10:13:11;3.65;;;2.50;;
26600;SDS011;14241;49.260;10.496;2024-03-25T10:15:36;7.32;;;2.47;;
26600;SDS011;14241;49.260;10.496;2024-03-25T10:18:01;5.18;;;2.55;;
26600;SDS011;14241;49.260;10.496;2024-03-25T10:20:27;3.72;;;2.28;;
26600;SDS011;14241;49.260;10.496;2024-03-25T10:22:52;4.10;;;2.30;;
26600;SDS011;14241;49.260;10.496;2024-03-25T10:25:27;4.05;;;2.28;;
26600;SDS011;14241;49.260;10.496;2024-03-25T10:27:53;7.43;;;2.60;;
26600;SDS011;14241;49.260;10.496;2024-03-25T10:30:19;4.70;;;2.20;;
26600;SDS011;14241;49.260;10.496;2024-03-25T10:32:44;3.38;;;2.10;;
26600;SDS011;14241;49.260;10.496;2024-03-25T10:35:09;4.55;;;2.08;;
26600;SDS011;14241;49.260;10.496;2024-03-25T10:37:34;4.38;;;1.73;;
26600;SDS011;14241;49.260;10.496;2024-03-25T10:40:00;5.55;;;1.98;;
26600;SDS011;14241;49.260;10.496;2024-03-25T10:42:26;4.70;;;2.35;;
26600;SDS011;14241;49.260;10.496;2024-03-25T10:44:51;4.15;;;2.20;;
26600;SDS011;14241;49.260;10.496;2024-03-25T10:47:24;4.78;;;2.30;;
26600;SDS011;14241;49.260;10.496;2024-03-25T10:49:51;3.95;;;2.10;;
26600;SDS011;14241;49.260;10.496;2024-03-25T10:52:20;4.78;;;2.03;;
26600;SDS011;14241;49.260;10.496;2024-03-25T10:54:46;2.78;;;2.00;;
26600;SDS011;14241;49.260;10.496;2024-03-25T10:57:12;16.70;;;11.88;;
26600;SDS011;14241;49.260;10.496;2024-03-25T10:59:38;3.92;;;2.35;;
26600;SDS011;14241;49.260;10.496;2024-03-25T11:02:06;3.28;;;2.20;;
26600;SDS011;14241;49.260;10.496;2024-03-25T11:04:32;2.90;;;1.92;;
26600;SDS011;14241;49.260;10.496;2024-03-25T11:07:10;4.07;;;2.03;;
26600;SDS011;14241;49.260;10.496;2024-03-25T11:09:38;4.85;;;2.22;;
26600;SDS011;14241;49.260;10.496;2024-03-25T11:12:04;3.50;;;1.85;;
26600;SDS011;14241;49.260;10.496;2024-03-25T11:14:29;5.65;;;2.78;;
26600;SDS011;14241;49.260;10.496;2024-03-25T11:16:57;2.58;;;1.85;;
26600;SDS011;14241;49.260;10.496;2024-03-25T11:19:25;5.10;;;1.70;;
26600;SDS011;14241;49.260;10.496;2024-03-25T11:21:50;4.20;;;2.03;;
26600;SDS011;14241;49.260;10.496;2024-03-25T11:24:25;4.50;;;1.70;;
26600;SDS011;14241;49.260;10.496;2024-03-25T11:26:51;4.60;;;2.10;;
26600;SDS011;14241;49.260;10.496;2024-03-25T11:29:17;4.85;;;2.03;;
26600;SDS011;14241;49.260;10.496;2024-03-25T11:31:43;4.93;;;1.90;;
26600;SDS011;14241;49.260;10.496;2024-03-25T11:34:09;3.67;;;1.92;;
26600;SDS011;14241;49.260;10.496;2024-03-25T11:36:35;5.00;;;2.20;;
26600;SDS011;14241;49.260;10.496;2024-03-25T11:39:01;2.60;;;1.80;;
26600;SDS011;14241;49.260;10.496;2024-03-25T11:41:29;3.92;;;2.13;;
26600;SDS011;14241;49.260;10.496;2024-03-25T11:43:55;2.88;;;1.83;;
26600;SDS011;14241;49.260;10.496;2024-03-25T11:46:24;5.03;;;1.80;;
26600;SDS011;14241;49.260;10.496;2024-03-25T11:48:49;5.30;;;1.50;;
26600;SDS011;14241;49.260;10.496;2024-03-25T11:51:19;5.75;;;2.22;;
26600;SDS011;14241;49.260;10.496;2024-03-25T11:53:44;3.92;;;2.08;;
26600;SDS011;14241;49.260;10.496;2024-03-25T11:56:10;3.38;;;1.95;;
26600;SDS011;14241;49.260;10.496;2024-03-25T11:58:36;3.03;;;1.65;;
26600;SDS011;14241;49.260;10.496;2024-03-25T12:01:01;7.00;;;2.00;;
26600;SDS011;14241;49.260;10.496;2024-03-25T12:03:26;3.45;;;1.70;;
26600;SDS011;14241;49.260;10.496;2024-03-25T12:05:52;5.07;;;1.90;;
26600;SDS011;14241;49.260;10.496;2024-03-25T12:08:17;2.70;;;1.42;;
26600;SDS011;14241;49.260;10.496;2024-03-25T12:10:42;4.35;;;1.58;;
26600;SDS011;14241;49.260;10.496;2024-03-25T12:13:26;2.63;;;1.45;;
26600;SDS011;14241;49.260;10.496;2024-03-25T12:15:52;3.03;;;1.65;;
26600;SDS011;14241;49.260;10.496;2024-03-25T12:18:18;3.05;;;1.60;;
26600;SDS011;14241;49.260;10.496;2024-03-25T12:20:46;3.60;;;1.73;;
26600;SDS011;14241;49.260;10.496;2024-03-25T12:23:12;4.70;;;1.80;;
26600;SDS011;14241;49.260;10.496;2024-03-25T12:25:37;3.63;;;1.73;;
26600;SDS011;14241;49.260;10.496;2024-03-25T12:28:07;3.30;;;1.60;;
26600;SDS011;14241;49.260;10.496;2024-03-25T12:30:33;1.70;;;1.40;;
26600;SDS011;14241;49.260;10.496;2024-03-25T12:33:00;4.00;;;1.38;;
26600;SDS011;14241;49.260;10.496;2024-03-25T12:35:25;3.30;;;1.70;;
26600;SDS011;14241;49.260;10.496;2024-03-25T12:37:51;3.85;;;1.90;;
26600;SDS011;14241;49.260;10.496;2024-03-25T12:40:27;4.50;;;2.00;;
26600;SDS011;14241;49.260;10.496;2024-03-25T12:42:53;2.80;;;1.50;;
26600;SDS011;14241;49.260;10.496;2024-03-25T12:45:18;2.85;;;1.40;;
26600;SDS011;14241;49.260;10.496;2024-03-25T12:47:44;3.40;;;1.73;;
26600;SDS011;14241;49.260;10.496;2024-03-25T12:50:09;3.08;;;1.65;;
26600;SDS011;14241;49.260;10.496;2024-03-25T12:52:34;1.88;;;1.42;;
26600;SDS011;14241;49.260;10.496;2024-03-25T12:55:00;2.53;;;1.45;;
26600;SDS011;14241;49.260;10.496;2024-03-25T12:57:25;3.58;;;1.88;;
26600;SDS011;14241;49.260;10.496;2024-03-25T12:59:50;2.60;;;1.38;;
26600;SDS011;14241;49.260;10.496;2024-03-25T13:02:15;4.80;;;1.70;;
26600;SDS011;14241;49.260;10.496;2024-03-25T13:04:41;2.35;;;1.40;;
26600;SDS011;14241;49.260;10.496;2024-03-25T13:07:09;4.32;;;1.70;;
26600;SDS011;14241;49.260;10.496;2024-03-25T13:09:34;3.25;;;1.70;;
26600;SDS011;14241;49.260;10.496;2024-03-25T13:11:59;3.92;;;1.60;;
26600;SDS011;14241;49.260;10.496;2024-03-25T13:14:25;1.85;;;1.05;;
26600;SDS011;14241;49.260;10.496;2024-03-25T13:16:50;3.90;;;1.45;;
26600;SDS011;14241;49.260;10.496;2024-03-25T13:19:15;10.15;;;1.65;;
26600;SDS011;14241;49.260;10.496;2024-03-25T13:21:41;2.55;;;1.30;;
26600;SDS011;14241;49.260;10.496;2024-03-25T13:24:06;3.88;;;1.65;;
26600;SDS011;14241;49.260;10.496;2024-03-25T13:26:31;4.30;;;1.27;;
26600;SDS011;14241;49.260;10.496;2024-03-25T13:28:57;2.22;;;1.38;;
26600;SDS011;14241;49.260;10.496;2024-03-25T13:31:23;2.30;;;1.20;;
26600;SDS011;14241;49.260;10.496;2024-03-25T13:33:48;2.17;;;1.30;;
26600;SDS011;14241;49.260;10.496;2024-03-25T13:36:14;2.53;;;1.48;;
26600;SDS011;14241;49.260;10.496;2024-03-25T13:38:39;2.07;;;1.03;;
26600;SDS011;14241;49.260;10.496;2024-03-25T13:41:04;2.88;;;1.10;;
26600;SDS011;14241;49.260;10.496;2024-03-25T13:43:31;4.28;;;1.40;;
26600;SDS011;14241;49.260;10.496;2024-03-25T13:45:56;2.13;;;1.17;;
26600;SDS011;14241;49.260;10.496;2024-03-25T13:48:21;1.50;;;1.17;;
26600;SDS011;14241;49.260;10.496;2024-03-25T13:50:47;3.60;;;1.40;;
26600;SDS011;14241;49.260;10.496;2024-03-25T13:53:13;5.60;;;1.30;;
26600;SDS011;14241;49.260;10.496;2024-03-25T13:55:38;1.67;;;1.17;;
26600;SDS011;14241;49.260;10.496;2024-03-25T13:58:04;2.45;;;1.17;;
26600;SDS011;14241;49.260;10.496;2024-03-25T14:00:30;2.58;;;1.58;;
26600;SDS011;14241;49.260;10.496;2024-03-25T14:02:56;1.70;;;1.30;;
26600;SDS011;14241;49.260;10.496;2024-03-25T14:05:21;2.67;;;1.60;;
26600;SDS011;14241;49.260;10.496;2024-03-25T14:07:48;3.95;;;1.45;;
26600;SDS011;14241;49.260;10.496;2024-03-25T14:10:13;3.75;;;1.35;;
26600;SDS011;14241;49.260;10.496;2024-03-25T14:12:39;2.92;;;1.40;;
26600;SDS011;14241;49.260;10.496;2024-03-25T14:15:04;4.15;;;1.25;;
26600;SDS011;14241;49.260;10.496;2024-03-25T14:17:29;2.22;;;1.30;;
26600;SDS011;14241;49.260;10.496;2024-03-25T14:19:55;1.85;;;1.40;;
26600;SDS011;14241;49.260;10.496;2024-03-25T14:22:21;1.75;;;1.10;;
26600;SDS011;14241;49.260;10.496;2024-03-25T14:24:46;5.07;;;1.45;;